createdAt,value
2022-08-03T00:00:50.384Z,24.70
2022-08-03T00:03:36.148Z,24.80
2022-08-03T00:11:54.368Z,24.50
2022-08-03T00:20:13.085Z,24.40
2022-08-03T00:22:58.854Z,24.40
2022-08-03T00:31:16.883Z,24.40
2022-08-03T00:45:23.021Z,24.40
2022-08-03T00:48:32.215Z,24.40
2022-08-03T00:56:59.263Z,24.30
2022-08-03T00:59:46.550Z,24.10
2022-08-03T01:05:20.454Z,24.20
2022-08-03T01:08:46.661Z,24.20
2022-08-03T01:11:59.923Z,24.00
2022-08-03T01:14:58.577Z,24.00
2022-08-03T01:17:55.270Z,24.00
2022-08-03T01:20:47.257Z,24.00
2022-08-03T01:23:49.215Z,24.10
2022-08-03T01:26:55.926Z,24.00
2022-08-03T01:30:01.777Z,24.00
2022-08-03T01:33:01.827Z,24.00
2022-08-03T01:35:54.359Z,23.90
2022-08-03T01:38:44.393Z,23.90
2022-08-03T01:41:44.341Z,23.90
2022-08-03T01:44:33.934Z,23.80
2022-08-03T01:47:22.448Z,23.90
2022-08-03T01:50:10.746Z,23.90
2022-08-03T01:52:58.475Z,23.80
2022-08-03T01:55:47.430Z,23.80
2022-08-03T01:58:36.311Z,23.80
2022-08-03T02:01:23.678Z,23.80
2022-08-03T02:04:10.822Z,23.70
2022-08-03T02:07:01.711Z,23.60
2022-08-03T02:09:52.754Z,23.60
2022-08-03T02:12:39.805Z,23.60
2022-08-03T02:15:27.135Z,23.60
2022-08-03T02:18:14.746Z,23.70
2022-08-03T02:21:05.486Z,23.60
2022-08-03T02:23:57.117Z,23.60
2022-08-03T02:26:43.865Z,23.60
2022-08-03T02:29:40.286Z,23.60
2022-08-03T02:32:34.371Z,23.50
2022-08-03T02:35:22.845Z,23.50
2022-08-03T02:38:11.437Z,23.50
2022-08-03T02:40:59.128Z,23.40
2022-08-03T02:44:05.983Z,23.40
2022-08-03T02:47:06.790Z,23.40
2022-08-03T02:49:54.457Z,23.30
2022-08-03T02:52:42.073Z,23.30
2022-08-03T02:55:29.528Z,23.20
2022-08-03T02:58:19.697Z,23.20
2022-08-03T03:01:06.088Z,23.30
2022-08-03T03:03:53.765Z,23.30
2022-08-03T03:06:41.197Z,23.00
2022-08-03T03:09:40.359Z,23.30
2022-08-03T03:12:28.349Z,22.90
2022-08-03T03:15:14.030Z,23.00
2022-08-03T03:18:01.070Z,23.10
2022-08-03T03:20:50.357Z,23.30
2022-08-03T03:23:38.302Z,23.40
2022-08-03T03:26:24.153Z,23.20
2022-08-03T03:29:09.970Z,23.00
2022-08-03T03:31:57.351Z,23.10
2022-08-03T03:40:16.177Z,23.10
2022-08-03T03:43:01.919Z,23.10
2022-08-03T03:45:48.457Z,23.20
2022-08-03T03:48:34.359Z,22.20
2022-08-03T03:51:19.932Z,22.90
2022-08-03T03:54:08.457Z,22.80
2022-08-03T03:56:54.401Z,22.80
2022-08-03T03:59:43.963Z,22.80
2022-08-03T04:05:34.808Z,22.80
2022-08-03T04:08:39.193Z,22.50
2022-08-03T04:11:34.648Z,22.90
2022-08-03T04:14:25.614Z,23.60
2022-08-03T04:17:13.634Z,22.60
2022-08-03T04:20:01.595Z,24.00
2022-08-03T04:22:51.327Z,22.40
2022-08-03T04:25:40.053Z,22.60
2022-08-03T04:28:30.920Z,22.60
2022-08-03T04:31:20.703Z,22.40
2022-08-03T04:34:08.178Z,22.20
2022-08-03T04:36:59.066Z,22.50
2022-08-03T04:39:48.493Z,22.70
2022-08-03T04:42:36.118Z,22.80
2022-08-03T04:50:54.905Z,23.50
2022-08-03T04:53:41.075Z,23.10
2022-08-03T04:59:13.328Z,23.20
2022-08-03T05:04:46.530Z,23.40
2022-08-03T05:07:35.915Z,23.50
2022-08-03T05:10:22.074Z,23.90
2022-08-03T05:13:12.057Z,23.90
2022-08-03T05:18:45.034Z,24.10
2022-08-03T05:24:36.837Z,25.30
2022-08-03T05:27:22.401Z,26.20
2022-08-03T05:30:29.787Z,26.80
2022-08-03T05:33:15.089Z,27.00
2022-08-03T05:36:04.162Z,27.20
2022-08-03T05:38:50.408Z,27.40
2022-08-03T05:44:25.486Z,28.20
2022-08-03T05:47:10.929Z,28.10
2022-08-03T05:49:56.568Z,27.50
2022-08-03T05:52:43.365Z,27.80
2022-08-03T06:03:49.160Z,27.90
2022-08-03T06:12:10.098Z,27.80
2022-08-03T06:14:59.478Z,27.60
2022-08-03T06:17:49.826Z,27.90
2022-08-03T06:20:35.392Z,27.60
2022-08-03T06:23:21.285Z,28.00
2022-08-03T06:26:06.930Z,27.90
2022-08-03T06:31:40.084Z,28.50
2022-08-03T06:34:32.577Z,28.40
2022-08-03T06:40:07.326Z,29.60
2022-08-03T06:48:25.112Z,28.40
2022-08-03T06:53:57.334Z,30.40
2022-08-03T07:05:21.870Z,30.40
2022-08-03T07:08:07.861Z,29.50
2022-08-03T07:10:53.622Z,30.80
2022-08-03T07:13:41.251Z,30.20
2022-08-03T07:19:13.074Z,30.00
2022-08-03T07:22:02.089Z,29.80
2022-08-03T07:38:40.003Z,29.60
2022-08-03T07:46:57.958Z,30.50
2022-08-03T07:55:35.290Z,29.70
2022-08-03T07:58:24.385Z,30.90
2022-08-03T08:01:10.355Z,30.60
2022-08-03T08:04:00.925Z,30.20
2022-08-03T08:06:46.478Z,31.00
2022-08-03T08:09:32.038Z,30.10
2022-08-03T08:15:04.633Z,29.50
2022-08-03T08:17:53.580Z,30.40
2022-08-03T08:29:15.986Z,30.50
2022-08-03T08:34:47.961Z,31.60
2022-08-03T08:37:34.356Z,32.00
2022-08-03T08:40:22.228Z,31.70
2022-08-03T08:43:07.932Z,32.20
2022-08-03T08:45:55.794Z,31.80
2022-08-03T08:48:43.950Z,31.70
2022-08-03T08:51:59.077Z,31.60
2022-08-03T08:54:44.645Z,32.20
2022-08-03T08:57:42.933Z,32.00
2022-08-03T09:00:30.935Z,32.80
2022-08-03T09:03:22.379Z,31.90
2022-08-03T09:06:16.069Z,32.90
2022-08-03T09:12:00.942Z,33.20
2022-08-03T09:15:15.863Z,33.70
2022-08-03T09:18:03.198Z,32.50
2022-08-03T09:20:49.161Z,31.70
2022-08-03T09:24:01.947Z,31.70
2022-08-03T09:26:52.189Z,32.20
2022-08-03T09:35:13.439Z,31.90
2022-08-03T09:38:19.890Z,32.10
2022-08-03T09:41:18.274Z,32.10
2022-08-03T09:44:04.034Z,32.00
2022-08-03T09:46:53.942Z,32.40
2022-08-03T09:49:41.658Z,31.90
2022-08-03T09:52:52.107Z,32.30
2022-08-03T09:58:48.026Z,32.10
2022-08-03T10:01:35.438Z,32.90
2022-08-03T10:10:31.199Z,31.90
2022-08-03T10:13:05.678Z,31.80
2022-08-03T10:16:21.202Z,32.00
2022-08-03T10:18:57.686Z,31.30
2022-08-03T10:21:50.322Z,31.50
2022-08-03T10:24:37.433Z,32.80
2022-08-03T10:27:25.072Z,32.40
2022-08-03T10:30:12.008Z,32.50
2022-08-03T10:33:49.289Z,32.60
2022-08-03T10:36:24.613Z,32.40
2022-08-03T10:39:16.110Z,31.70
2022-08-03T10:42:03.701Z,32.40
2022-08-03T10:45:00.600Z,32.00
2022-08-03T10:47:51.444Z,31.90
2022-08-03T10:50:38.694Z,31.60
2022-08-03T10:53:54.160Z,32.20
2022-08-03T11:00:02.003Z,32.10
2022-08-03T11:03:11.610Z,32.10
2022-08-03T11:06:19.155Z,32.80
2022-08-03T11:09:10.620Z,32.00
2022-08-03T11:14:47.712Z,32.20
2022-08-03T11:17:46.398Z,31.60
2022-08-03T11:20:57.329Z,32.30
2022-08-03T11:24:04.486Z,30.80
2022-08-03T11:27:14.133Z,32.10
2022-08-03T11:30:27.573Z,32.20
2022-08-03T11:33:28.575Z,32.20
2022-08-03T11:39:18.058Z,31.10
2022-08-03T11:42:23.908Z,32.40
2022-08-03T11:45:10.324Z,32.20
2022-08-03T11:53:31.394Z,31.80
2022-08-03T11:56:17.498Z,31.10
2022-08-03T11:59:18.546Z,31.40
2022-08-03T12:02:11.887Z,32.40
2022-08-03T12:05:01.259Z,32.20
2022-08-03T12:08:03.735Z,32.80
2022-08-03T12:10:52.218Z,32.60
2022-08-03T12:16:48.647Z,32.60
2022-08-03T12:19:43.711Z,32.30
2022-08-03T12:22:39.752Z,32.30
2022-08-03T12:25:38.847Z,32.20
2022-08-03T12:34:11.374Z,32.30
2022-08-03T12:40:02.090Z,32.90
2022-08-03T12:42:51.752Z,32.70
2022-08-03T12:51:13.523Z,33.00
2022-08-03T12:53:59.860Z,32.80
2022-08-03T12:57:08.370Z,32.80
2022-08-03T12:59:55.992Z,33.50
2022-08-03T13:02:41.850Z,32.40
2022-08-03T13:05:32.690Z,33.10
2022-08-03T13:08:24.602Z,32.80
2022-08-03T13:11:20.705Z,33.50
2022-08-03T13:16:52.765Z,32.10
2022-08-03T13:19:39.833Z,32.50
2022-08-03T13:22:30.240Z,33.30
2022-08-03T13:36:26.529Z,33.80
2022-08-03T13:39:16.217Z,33.10
2022-08-03T13:42:05.803Z,33.10
2022-08-03T13:44:51.737Z,33.40
2022-08-03T13:47:38.098Z,34.00
2022-08-03T13:53:10.481Z,33.10
2022-08-03T13:55:55.745Z,33.50
2022-08-03T13:58:41.372Z,34.10
2022-08-03T14:01:54.478Z,33.90
2022-08-03T14:04:33.693Z,33.60
2022-08-03T14:12:52.741Z,33.40
2022-08-03T14:15:38.878Z,33.00
2022-08-03T14:18:27.896Z,33.50
2022-08-03T14:21:15.200Z,34.00
2022-08-03T14:32:19.044Z,34.10
2022-08-03T14:37:51.973Z,33.20
2022-08-03T14:40:37.794Z,33.50
2022-08-03T14:43:24.869Z,34.20
2022-08-03T14:46:10.280Z,33.20
2022-08-03T14:50:34.340Z,33.50
2022-08-03T14:54:47.514Z,33.10
2022-08-03T14:57:33.054Z,33.30
2022-08-03T15:03:05.005Z,33.30
2022-08-03T15:05:52.867Z,32.60
2022-08-03T15:14:10.786Z,33.50
2022-08-03T15:16:59.667Z,33.40
2022-08-03T15:26:31.914Z,33.00
2022-08-03T15:31:27.498Z,33.00
2022-08-03T15:34:13.171Z,33.10
2022-08-03T15:36:58.907Z,33.60
2022-08-03T15:51:12.489Z,33.40
2022-08-03T15:53:58.504Z,33.00
2022-08-03T15:56:45.371Z,32.10
2022-08-03T15:59:31.038Z,33.10
2022-08-03T16:02:16.758Z,33.20
2022-08-03T16:05:02.498Z,33.90
2022-08-03T16:08:02.525Z,32.20
2022-08-03T16:10:50.373Z,32.70
2022-08-03T16:14:13.726Z,33.30
2022-08-03T16:19:29.658Z,33.70
2022-08-03T16:22:17.348Z,33.70
2022-08-03T16:25:05.892Z,32.60
2022-08-03T16:28:07.680Z,33.10
2022-08-03T16:30:58.265Z,32.40
2022-08-03T16:36:34.638Z,33.40
2022-08-03T16:42:06.734Z,32.50
2022-08-03T16:44:52.625Z,32.80
2022-08-03T16:47:38.334Z,33.30
2022-08-03T16:53:16.980Z,32.50
2022-08-03T16:56:09.476Z,33.50
2022-08-03T17:04:34.350Z,32.90
2022-08-03T17:07:21.044Z,32.40
2022-08-03T17:10:08.722Z,33.10
2022-08-03T17:16:00.814Z,32.70
2022-08-03T17:18:56.747Z,32.60
2022-08-03T17:21:50.805Z,32.60
2022-08-03T17:24:41.473Z,32.70
2022-08-03T17:28:49.790Z,32.60
2022-08-03T17:30:55.254Z,32.50
2022-08-03T17:37:03.306Z,32.80
2022-08-03T17:40:03.912Z,32.40
2022-08-03T17:42:50.853Z,32.50
2022-08-03T17:48:41.242Z,32.80
2022-08-03T17:52:02.972Z,32.30
2022-08-03T17:55:56.494Z,32.20
2022-08-03T17:58:54.968Z,32.90
2022-08-03T18:02:11.536Z,32.10
2022-08-03T18:05:16.817Z,32.10
2022-08-03T18:08:06.903Z,32.00
2022-08-03T18:11:14.325Z,31.40
2022-08-03T18:14:37.472Z,31.90
2022-08-03T18:17:55.496Z,32.40
2022-08-03T18:20:40.868Z,31.30
2022-08-03T18:23:37.330Z,31.50
2022-08-03T18:26:24.390Z,31.80
2022-08-03T18:29:12.926Z,31.40
2022-08-03T18:32:06.046Z,32.10
2022-08-03T18:35:02.629Z,31.00
2022-08-03T18:40:38.213Z,31.40
2022-08-03T18:47:06.978Z,30.60
2022-08-03T18:49:59.636Z,30.90
2022-08-03T18:53:16.346Z,30.50
2022-08-03T18:56:20.635Z,31.50
2022-08-03T18:59:30.163Z,30.80
2022-08-03T19:02:37.990Z,30.70
2022-08-03T19:05:56.434Z,30.60
2022-08-03T19:08:47.889Z,31.10
2022-08-03T19:12:12.364Z,31.10
2022-08-03T19:14:53.386Z,30.20
2022-08-03T19:17:52.803Z,30.50
2022-08-03T19:20:40.182Z,30.40
2022-08-03T19:23:26.016Z,30.00
2022-08-03T19:26:30.386Z,30.40
2022-08-03T19:29:18.604Z,30.20
2022-08-03T19:32:09.519Z,30.00
2022-08-03T19:34:57.099Z,29.60
2022-08-03T19:37:45.881Z,29.80
2022-08-03T19:40:34.137Z,29.70
2022-08-03T19:43:32.987Z,29.60
2022-08-03T19:46:20.970Z,29.90
2022-08-03T19:49:15.297Z,29.50
2022-08-03T19:52:03.579Z,29.30
2022-08-03T19:54:53.910Z,29.30
2022-08-03T19:57:43.883Z,29.20
2022-08-03T20:03:42.935Z,29.80
2022-08-03T20:06:30.882Z,28.10
2022-08-03T20:09:19.430Z,28.60
2022-08-03T20:12:05.673Z,28.70
2022-08-03T20:14:52.115Z,29.10
2022-08-03T20:17:56.662Z,28.60
2022-08-03T20:20:48.159Z,28.60
2022-08-03T20:23:38.822Z,28.50
2022-08-03T20:26:48.829Z,27.50
2022-08-03T20:30:06.689Z,28.70
2022-08-03T20:32:52.930Z,28.60
2022-08-03T20:35:41.884Z,28.20
2022-08-03T20:38:31.831Z,28.00
2022-08-03T20:44:04.667Z,28.10
2022-08-03T20:46:59.828Z,28.00
2022-08-03T20:49:46.683Z,27.80
2022-08-03T20:52:33.374Z,27.90
2022-08-03T20:55:20.307Z,27.80
2022-08-03T20:58:07.216Z,27.90
2022-08-03T21:00:53.748Z,27.70
2022-08-03T21:03:40.516Z,27.80
2022-08-03T21:06:33.394Z,27.20
2022-08-03T21:09:22.857Z,27.60
2022-08-03T21:13:13.184Z,28.00
2022-08-03T21:16:11.389Z,27.70
2022-08-03T21:18:38.089Z,27.60
2022-08-03T21:24:13.698Z,27.50
2022-08-03T21:26:59.941Z,27.60
2022-08-03T21:29:53.732Z,27.40
2022-08-03T21:32:41.938Z,27.20
2022-08-03T21:38:29.740Z,27.00
2022-08-03T21:41:15.706Z,26.60
2022-08-03T21:44:02.626Z,27.30
2022-08-03T21:46:53.912Z,27.20
2022-08-03T21:49:51.893Z,27.30
2022-08-03T21:52:51.357Z,27.20
2022-08-03T21:55:40.081Z,27.20
2022-08-03T21:58:32.725Z,27.10
2022-08-03T22:01:19.995Z,27.00
2022-08-03T22:04:07.225Z,26.90
2022-08-03T22:09:51.236Z,27.00
2022-08-03T22:12:37.762Z,27.00
2022-08-03T22:15:23.376Z,26.30
2022-08-03T22:18:09.798Z,26.90
2022-08-03T22:20:56.301Z,26.70
2022-08-03T22:23:47.616Z,26.50
2022-08-03T22:26:35.831Z,27.10
2022-08-03T22:29:21.517Z,26.70
2022-08-03T22:32:08.084Z,26.90
2022-08-03T22:34:54.246Z,26.80
2022-08-03T22:37:41.306Z,27.30
2022-08-03T22:40:27.880Z,26.10
2022-08-03T22:43:13.540Z,26.40
2022-08-03T22:46:09.680Z,26.80
2022-08-03T22:49:00.285Z,25.60
2022-08-03T22:51:47.199Z,26.60
2022-08-03T22:54:33.638Z,27.00
2022-08-03T22:57:21.523Z,26.80
2022-08-03T23:00:12.954Z,27.10
2022-08-03T23:03:01.723Z,26.80
2022-08-03T23:06:00.839Z,26.50
2022-08-03T23:08:50.315Z,26.40
2022-08-03T23:11:42.840Z,26.50
2022-08-03T23:14:36.234Z,26.40
2022-08-03T23:17:24.068Z,26.40
2022-08-03T23:20:10.689Z,26.30
2022-08-03T23:22:59.885Z,26.40
2022-08-03T23:25:46.808Z,26.00
2022-08-03T23:28:32.449Z,26.10
2022-08-03T23:31:20.940Z,26.10
2022-08-03T23:34:31.497Z,26.00
2022-08-03T23:37:18.991Z,26.20
2022-08-03T23:45:41.165Z,25.90
2022-08-03T23:48:27.456Z,25.90
2022-08-03T23:51:47.621Z,25.90
2022-08-03T23:54:52.018Z,25.80
2022-08-03T23:57:43.479Z,25.90
